Geronimo — PD6553 — position and weather

sailwx.info

Track history (hours):
 
Tides and Currents Weather Stations Pressure Air Temp Water Temp Dewpoint Dewpoint Depression Visibility Wind Speed Wind Dir Waves Ship Positions

Geronimo

Last reported at 2017-Apr-26 03:24 UTC. Time now 2017-Apr-26 06:14 UTC.
Position N 17°29' W 062°24'.

Length 20 m; draft 2.9 m.

Type: Sailing vessel. MMSI: 244620501.

Date/timePositionNaut miles runAvg speedWind from/ knotsBaromVisibWave heightAir tempDewpointWater temp
2017-Apr-26 03:24N 17°29' W 062°24'3 7.6
2017-Apr-26 02:59N 17°27' W 062°22'4 7.3
2017-Apr-26 02:30N 17°24' W 062°19'4 7.4
2017-Apr-26 02:00N 17°22' W 062°16'4 7.3
2017-Apr-26 01:30N 17°19' W 062°13'4 7.6
2017-Apr-26 01:00N 17°17' W 062°10'4 7.6
2017-Apr-26 00:30N 17°14' W 062°07'4 7.5
2017-Apr-26 00:00N 17°11' W 062°04'4 7.3
2017-Apr-25 23:30N 17°09' W 062°02'4 7.3
2017-Apr-25 23:00N 17°07' W 061°59'3 6.6
2017-Apr-25 22:30N 17°04' W 061°56'3 4.9
2017-Apr-25 21:59N 17°03' W 061°54'0 0.0
2017-Apr-25 21:16N 17°03' W 061°54'0 0.0
2017-Apr-25 20:59N 17°03' W 061°54'0 0.0
2017-Apr-25 20:30N 17°03' W 061°54'0 0.0
2017-Apr-25 20:00N 17°03' W 061°54'0 0.0
2017-Apr-25 19:26N 17°03' W 061°54'0 0.0
2017-Apr-25 19:00N 17°03' W 061°54'0 0.0
2017-Apr-25 18:30N 17°03' W 061°54'2 3.6
2017-Apr-25 18:00N 17°01' W 061°53'4 7.5
2017-Apr-25 17:30N 17°00' W 061°50'3 6.3
2017-Apr-25 17:00N 17°01' W 061°46'0 0.1
2017-Apr-25 16:30N 17°01' W 061°46'0 0.0
2017-Apr-25 16:00N 17°01' W 061°46'0 0.0
2017-Apr-25 15:30N 17°01' W 061°46'0 0.0
2017-Apr-25 15:00N 17°01' W 061°46'0 0.0
2017-Apr-25 14:00N 17°01' W 061°46'0 0.0
2017-Apr-25 13:30N 17°01' W 061°46'0 0.0
2017-Apr-25 13:00N 17°01' W 061°46'0 0.0
2017-Apr-25 12:30N 17°01' W 061°46'0 0.0
2017-Apr-25 12:00N 17°01' W 061°46'0 0.0
2017-Apr-25 11:30N 17°01' W 061°46'0 0.0
2017-Apr-25 11:00N 17°01' W 061°46'0 0.0
2017-Apr-25 10:30N 17°01' W 061°46'0 0.0
2017-Apr-25 10:00N 17°01' W 061°46'0 0.0
2017-Apr-25 09:30N 17°01' W 061°46'0 0.0
2017-Apr-25 09:00N 17°01' W 061°46'0 0.0
2017-Apr-25 08:30N 17°01' W 061°46'0 0.0
2017-Apr-25 08:00N 17°01' W 061°46'0 0.0
2017-Apr-25 07:30N 17°01' W 061°46'0 0.0
2017-Apr-25 07:00N 17°01' W 061°46'0 0.0
2017-Apr-25 06:30N 17°01' W 061°46'0 0.0
2017-Apr-25 06:00N 17°01' W 061°46'0 0.0
2017-Apr-25 05:30N 17°01' W 061°46'0 0.0
2017-Apr-25 05:00N 17°01' W 061°46'0 0.0
2017-Apr-25 04:30N 17°01' W 061°46'0 0.0
2017-Apr-25 04:00N 17°01' W 061°46'0 0.0
2017-Apr-25 03:30N 17°01' W 061°46'0 0.0
2017-Apr-25 03:00N 17°01' W 061°46'0 0.0
2017-Apr-25 02:30N 17°01' W 061°46'0 0.0
2017-Apr-25 02:00N 17°01' W 061°46'0 0.0
2017-Apr-25 01:30N 17°01' W 061°46'0 0.0
2017-Apr-25 01:00N 17°01' W 061°46'0 0.0
2017-Apr-25 00:30N 17°01' W 061°46'0 0.0
2017-Apr-25 00:00N 17°01' W 061°46'0 0.0
2017-Apr-24 23:30N 17°01' W 061°46'0 0.0
2017-Apr-24 23:00N 17°01' W 061°46'0 0.0
2017-Apr-24 22:30N 17°01' W 061°46'0 0.0
2017-Apr-24 22:00N 17°01' W 061°46'0 0.0
2017-Apr-24 21:30N 17°01' W 061°46'0 0.0
2017-Apr-24 21:00N 17°01' W 061°46'0 0.0
2017-Apr-24 20:30N 17°01' W 061°46'0 0.0
2017-Apr-24 20:00N 17°01' W 061°46'0 0.0
2017-Apr-24 19:30N 17°01' W 061°46'0 0.0
2017-Apr-24 19:00N 17°01' W 061°46'0 0.0
2017-Apr-24 18:30N 17°01' W 061°46'0 0.2
2017-Apr-24 18:00N 17°01' W 061°47'3 6.0
2017-Apr-24 17:30N 16°58' W 061°46'4 7.6
2017-Apr-24 17:00N 16°54' W 061°45'4 7.7
2017-Apr-24 16:30N 16°50' W 061°44'4 7.6
2017-Apr-24 16:00N 16°47' W 061°42'4 7.4
2017-Apr-24 15:30N 16°44' W 061°41'4 7.3
2017-Apr-24 15:00N 16°40' W 061°39'4 7.3
2017-Apr-24 14:30N 16°37' W 061°37'8 7.5
2017-Apr-24 13:30N 16°30' W 061°35'3 6.5
2017-Apr-24 13:00N 16°27' W 061°33'3 5.9
2017-Apr-24 12:30N 16°24' W 061°32'0 0.1
2017-Apr-24 12:00N 16°24' W 061°32'0 0.0
2017-Apr-24 11:30N 16°24' W 061°32'0 0.0
2017-Apr-24 11:00N 16°24' W 061°32'0 0.0
2017-Apr-24 10:30N 16°24' W 061°32'0 0.0
2017-Apr-24 10:00N 16°24' W 061°32'0 0.0
2017-Apr-24 09:30N 16°24' W 061°32'0 0.0
2017-Apr-24 09:00N 16°24' W 061°32'0 0.0
2017-Apr-24 08:30N 16°24' W 061°32'0 0.0
2017-Apr-24 08:01N 16°24' W 061°32'0 0.0
2017-Apr-24 07:30N 16°24' W 061°32'0 0.0
2017-Apr-24 07:00N 16°24' W 061°32'0 0.0
2017-Apr-24 06:30N 16°24' W 061°32'0 0.0
2017-Apr-24 06:00N 16°24' W 061°32'0 0.0
2017-Apr-24 05:30N 16°24' W 061°32'0 0.0
2017-Apr-24 05:00N 16°24' W 061°32'0 0.0
2017-Apr-24 04:30N 16°24' W 061°32'0 0.0
2017-Apr-24 04:00N 16°24' W 061°32'0 0.0
2017-Apr-24 03:30N 16°24' W 061°32'0 0.0
2017-Apr-24 03:00N 16°24' W 061°32'0 0.0
2017-Apr-24 02:30N 16°24' W 061°32'0 0.0
2017-Apr-24 02:00N 16°24' W 061°32'0 0.0
2017-Apr-24 01:30N 16°24' W 061°32'0 0.0
2017-Apr-24 01:00N 16°24' W 061°32'0 0.0
2017-Apr-24 00:30N 16°24' W 061°32'0 0.0
2017-Apr-24 00:00N 16°24' W 061°32'0 0.0
2017-Apr-23 23:30N 16°24' W 061°32'0 0.0
2017-Apr-23 23:00N 16°24' W 061°32'0 0.0
2017-Apr-23 22:30N 16°24' W 061°32'0 0.0
2017-Apr-23 22:00N 16°24' W 061°32'0 0.0
2017-Apr-23 21:30N 16°24' W 061°32'0 0.0
2017-Apr-23 21:00N 16°24' W 061°32'0 0.0
2017-Apr-23 20:30N 16°24' W 061°32'0 0.0
2017-Apr-23 20:00N 16°24' W 061°32'0 0.0
2017-Apr-23 19:30N 16°24' W 061°32'0 0.0
2017-Apr-23 19:00N 16°24' W 061°32'0 0.0
2017-Apr-23 18:30N 16°24' W 061°32'0 0.0
2017-Apr-23 18:00N 16°24' W 061°32'0 0.0
2017-Apr-23 17:30N 16°24' W 061°32'0 0.0
2017-Apr-23 17:00N 16°24' W 061°32'0 0.0
2017-Apr-23 16:30N 16°24' W 061°32'0 0.0
2017-Apr-23 16:00N 16°24' W 061°32'0 0.0
2017-Apr-23 15:30N 16°24' W 061°32'0 0.0
2017-Apr-23 15:00N 16°24' W 061°32'0 0.0
2017-Apr-23 14:00N 16°24' W 061°32'3 5.9
2017-Apr-23 13:30N 16°22' W 061°34'3 5.7
2017-Apr-23 12:59N 16°19' W 061°34'3 5.5
2017-Apr-23 12:30N 16°17' W 061°35'0 0.8
2017-Apr-23 11:56N 16°16' W 061°35'0 0.0
2017-Apr-23 11:30N 16°16' W 061°35'0 0.0
2017-Apr-23 11:00N 16°16' W 061°35'0 0.0
2017-Apr-23 10:30N 16°16' W 061°35'0 0.0
2017-Apr-23 09:50N 16°16' W 061°35'0 0.0
2017-Apr-23 09:30N 16°16' W 061°35'0 0.0
2017-Apr-23 08:58N 16°16' W 061°35'0 0.0
2017-Apr-23 08:28N 16°16' W 061°35'0 0.0
2017-Apr-23 08:00N 16°16' W 061°35'0 0.0
2017-Apr-23 07:30N 16°16' W 061°35'0 0.0
2017-Apr-23 07:00N 16°16' W 061°35'0 0.0
2017-Apr-23 06:27N 16°16' W 061°35'0 0.0
2017-Apr-23 06:00N 16°16' W 061°35'0 0.0
2017-Apr-23 05:30N 16°16' W 061°35'0 0.0
2017-Apr-23 04:42N 16°16' W 061°35'0 0.0
2017-Apr-23 04:30N 16°16' W 061°35'0 0.0
2017-Apr-23 03:55N 16°16' W 061°35'0 0.0
2017-Apr-23 03:29N 16°16' W 061°35'0 0.0
2017-Apr-23 03:00N 16°16' W 061°35'0 0.0
2017-Apr-23 02:29N 16°16' W 061°35'0 0.0
2017-Apr-23 01:49N 16°16' W 061°35'0 0.0
2017-Apr-23 01:25N 16°16' W 061°35'0 0.0
2017-Apr-23 00:59N 16°16' W 061°35'0 0.0
2017-Apr-23 00:25N 16°16' W 061°35'0 0.0
2017-Apr-22 23:57N 16°16' W 061°35'0 0.0
2017-Apr-22 23:30N 16°16' W 061°35'0 0.0
2017-Apr-22 22:59N 16°16' W 061°35'0 0.0
2017-Apr-22 22:30N 16°16' W 061°35'0 0.0
2017-Apr-22 21:53N 16°16' W 061°35'0 0.0
2017-Apr-22 21:29N 16°16' W 061°35'0 0.0
2017-Apr-22 21:00N 16°16' W 061°35'0 0.0
2017-Apr-22 20:30N 16°16' W 061°35'0 0.0
2017-Apr-22 20:00N 16°16' W 061°35'0 0.0
2017-Apr-22 19:21N 16°16' W 061°35'0 0.0
2017-Apr-22 18:56N 16°16' W 061°35'0 0.0
2017-Apr-22 18:29N 16°16' W 061°35'0 0.0
2017-Apr-22 17:59N 16°16' W 061°35'0 0.0
2017-Apr-22 17:28N 16°16' W 061°35'0 0.0
2017-Apr-22 16:59N 16°16' W 061°35'1 2.9
2017-Apr-22 16:29N 16°18' W 061°35'3 5.9
2017-Apr-22 16:00N 16°20' W 061°34'3 5.6
2017-Apr-22 15:30N 16°23' W 061°36'3 5.2
2017-Apr-22 15:00N 16°24' W 061°38'3 6.9
2017-Apr-22 14:30N 16°24' W 061°42'7 6.5
2017-Apr-22 13:27N 16°20' W 061°48'2 4.8
2017-Apr-22 13:00N 16°18' W 061°48'0 0.1
2017-Apr-22 12:30N 16°18' W 061°48'0 0.0
2017-Apr-22 11:59N 16°18' W 061°48'0 0.0
2017-Apr-22 11:30N 16°18' W 061°48'0 0.0
2017-Apr-22 11:00N 16°18' W 061°48'0 0.0
2017-Apr-22 10:30N 16°18' W 061°48'0 0.0
2017-Apr-22 10:00N 16°18' W 061°48'0 0.0
2017-Apr-22 09:30N 16°18' W 061°48'0 0.0
2017-Apr-22 09:00N 16°18' W 061°48'0 0.0
2017-Apr-22 08:30N 16°18' W 061°48'0 0.0
2017-Apr-22 08:00N 16°18' W 061°48'0 0.0
2017-Apr-22 07:30N 16°18' W 061°48'0 0.0
2017-Apr-22 07:00N 16°18' W 061°48'0 0.0
2017-Apr-22 06:30N 16°18' W 061°48'0 0.0
2017-Apr-22 06:00N 16°18' W 061°48'0 0.0
2017-Apr-22 05:29N 16°18' W 061°48'0 0.0
2017-Apr-22 05:00N 16°18' W 061°48'0 0.0
2017-Apr-22 04:30N 16°18' W 061°48'0 0.0
2017-Apr-22 03:59N 16°18' W 061°48'0 0.0
2017-Apr-22 03:29N 16°18' W 061°48'0 0.0
2017-Apr-22 03:00N 16°18' W 061°48'0 0.0
2017-Apr-22 02:30N 16°18' W 061°48'0 0.0
2017-Apr-22 02:00N 16°18' W 061°48'0 0.0
2017-Apr-22 01:30N 16°18' W 061°48'0 0.0
2017-Apr-22 00:59N 16°18' W 061°48'0 0.0
2017-Apr-22 00:30N 16°18' W 061°48'0 0.0
2017-Apr-22 00:00N 16°18' W 061°48'0 0.0
2017-Apr-21 23:30N 16°18' W 061°48'0 0.0
2017-Apr-21 22:59N 16°18' W 061°48'0 0.0
2017-Apr-21 22:25N 16°18' W 061°48'0 0.0
2017-Apr-21 22:00N 16°18' W 061°48'0 0.0
2017-Apr-21 21:30N 16°18' W 061°48'0 0.0
2017-Apr-21 20:58N 16°18' W 061°48'0 0.0
2017-Apr-21 20:30N 16°18' W 061°48'0 0.0
2017-Apr-21 20:00N 16°18' W 061°48'0 0.0
2017-Apr-21 19:29N 16°18' W 061°48'0 0.0
2017-Apr-21 19:00N 16°18' W 061°48'0 0.0
2017-Apr-21 18:30N 16°18' W 061°48'0 0.8
2017-Apr-21 17:59N 16°18' W 061°48'8 7.7
2017-Apr-21 16:59N 16°10' W 061°48'4 7.7
2017-Apr-21 16:30N 16°07' W 061°47'4 6.8
2017-Apr-21 15:59N 16°03' W 061°46'  
Track history (hours):
 
Tides and Currents Weather Stations Pressure Air Temp Water Temp Dewpoint Dewpoint Depression Visibility Wind Speed Wind Dir Waves Ship Positions

Geronimo

Last reported at 2017-Apr-26 03:24 UTC. Time now 2017-Apr-26 06:14 UTC.
Position N 17°29' W 062°24'.

Length 20 m; draft 2.9 m.

Type: Sailing vessel. MMSI: 244620501.

Date/timePositionNaut miles runAvg speedWind from/ knotsBaromVisibWave heightAir tempDewpointWater temp
2017-Apr-26 03:24N 17°29' W 062°24'3 7.6
2017-Apr-26 02:59N 17°27' W 062°22'4 7.3
2017-Apr-26 02:30N 17°24' W 062°19'4 7.4
2017-Apr-26 02:00N 17°22' W 062°16'4 7.3
2017-Apr-26 01:30N 17°19' W 062°13'4 7.6
2017-Apr-26 01:00N 17°17' W 062°10'4 7.6
2017-Apr-26 00:30N 17°14' W 062°07'4 7.5
2017-Apr-26 00:00N 17°11' W 062°04'4 7.3
2017-Apr-25 23:30N 17°09' W 062°02'4 7.3
2017-Apr-25 23:00N 17°07' W 061°59'3 6.6
2017-Apr-25 22:30N 17°04' W 061°56'3 4.9
2017-Apr-25 21:59N 17°03' W 061°54'0 0.0
2017-Apr-25 21:16N 17°03' W 061°54'0 0.0
2017-Apr-25 20:59N 17°03' W 061°54'0 0.0
2017-Apr-25 20:30N 17°03' W 061°54'0 0.0
2017-Apr-25 20:00N 17°03' W 061°54'0 0.0
2017-Apr-25 19:26N 17°03' W 061°54'0 0.0
2017-Apr-25 19:00N 17°03' W 061°54'0 0.0
2017-Apr-25 18:30N 17°03' W 061°54'2 3.6
2017-Apr-25 18:00N 17°01' W 061°53'4 7.5
2017-Apr-25 17:30N 17°00' W 061°50'3 6.3
2017-Apr-25 17:00N 17°01' W 061°46'0 0.1
2017-Apr-25 16:30N 17°01' W 061°46'0 0.0
2017-Apr-25 16:00N 17°01' W 061°46'0 0.0
2017-Apr-25 15:30N 17°01' W 061°46'0 0.0
2017-Apr-25 15:00N 17°01' W 061°46'0 0.0
2017-Apr-25 14:00N 17°01' W 061°46'0 0.0
2017-Apr-25 13:30N 17°01' W 061°46'0 0.0
2017-Apr-25 13:00N 17°01' W 061°46'0 0.0
2017-Apr-25 12:30N 17°01' W 061°46'0 0.0
2017-Apr-25 12:00N 17°01' W 061°46'0 0.0
2017-Apr-25 11:30N 17°01' W 061°46'0 0.0
2017-Apr-25 11:00N 17°01' W 061°46'0 0.0
2017-Apr-25 10:30N 17°01' W 061°46'0 0.0
2017-Apr-25 10:00N 17°01' W 061°46'0 0.0
2017-Apr-25 09:30N 17°01' W 061°46'0 0.0
2017-Apr-25 09:00N 17°01' W 061°46'0 0.0
2017-Apr-25 08:30N 17°01' W 061°46'0 0.0
2017-Apr-25 08:00N 17°01' W 061°46'0 0.0
2017-Apr-25 07:30N 17°01' W 061°46'0 0.0
2017-Apr-25 07:00N 17°01' W 061°46'0 0.0
2017-Apr-25 06:30N 17°01' W 061°46'0 0.0
2017-Apr-25 06:00N 17°01' W 061°46'0 0.0
2017-Apr-25 05:30N 17°01' W 061°46'0 0.0
2017-Apr-25 05:00N 17°01' W 061°46'0 0.0
2017-Apr-25 04:30N 17°01' W 061°46'0 0.0
2017-Apr-25 04:00N 17°01' W 061°46'0 0.0
2017-Apr-25 03:30N 17°01' W 061°46'0 0.0
2017-Apr-25 03:00N 17°01' W 061°46'0 0.0
2017-Apr-25 02:30N 17°01' W 061°46'0 0.0
2017-Apr-25 02:00N 17°01' W 061°46'0 0.0
2017-Apr-25 01:30N 17°01' W 061°46'0 0.0
2017-Apr-25 01:00N 17°01' W 061°46'0 0.0
2017-Apr-25 00:30N 17°01' W 061°46'0 0.0
2017-Apr-25 00:00N 17°01' W 061°46'0 0.0
2017-Apr-24 23:30N 17°01' W 061°46'0 0.0
2017-Apr-24 23:00N 17°01' W 061°46'0 0.0
2017-Apr-24 22:30N 17°01' W 061°46'0 0.0
2017-Apr-24 22:00N 17°01' W 061°46'0 0.0
2017-Apr-24 21:30N 17°01' W 061°46'0 0.0
2017-Apr-24 21:00N 17°01' W 061°46'0 0.0
2017-Apr-24 20:30N 17°01' W 061°46'0 0.0
2017-Apr-24 20:00N 17°01' W 061°46'0 0.0
2017-Apr-24 19:30N 17°01' W 061°46'0 0.0
2017-Apr-24 19:00N 17°01' W 061°46'0 0.0
2017-Apr-24 18:30N 17°01' W 061°46'0 0.2
2017-Apr-24 18:00N 17°01' W 061°47'3 6.0
2017-Apr-24 17:30N 16°58' W 061°46'4 7.6
2017-Apr-24 17:00N 16°54' W 061°45'4 7.7
2017-Apr-24 16:30N 16°50' W 061°44'4 7.6
2017-Apr-24 16:00N 16°47' W 061°42'4 7.4
2017-Apr-24 15:30N 16°44' W 061°41'4 7.3
2017-Apr-24 15:00N 16°40' W 061°39'4 7.3
2017-Apr-24 14:30N 16°37' W 061°37'8 7.5
2017-Apr-24 13:30N 16°30' W 061°35'3 6.5
2017-Apr-24 13:00N 16°27' W 061°33'3 5.9
2017-Apr-24 12:30N 16°24' W 061°32'0 0.1
2017-Apr-24 12:00N 16°24' W 061°32'0 0.0
2017-Apr-24 11:30N 16°24' W 061°32'0 0.0
2017-Apr-24 11:00N 16°24' W 061°32'0 0.0
2017-Apr-24 10:30N 16°24' W 061°32'0 0.0
2017-Apr-24 10:00N 16°24' W 061°32'0 0.0
2017-Apr-24 09:30N 16°24' W 061°32'0 0.0
2017-Apr-24 09:00N 16°24' W 061°32'0 0.0
2017-Apr-24 08:30N 16°24' W 061°32'0 0.0
2017-Apr-24 08:01N 16°24' W 061°32'0 0.0
2017-Apr-24 07:30N 16°24' W 061°32'0 0.0
2017-Apr-24 07:00N 16°24' W 061°32'0 0.0
2017-Apr-24 06:30N 16°24' W 061°32'0 0.0
2017-Apr-24 06:00N 16°24' W 061°32'0 0.0
2017-Apr-24 05:30N 16°24' W 061°32'0 0.0
2017-Apr-24 05:00N 16°24' W 061°32'0 0.0
2017-Apr-24 04:30N 16°24' W 061°32'0 0.0
2017-Apr-24 04:00N 16°24' W 061°32'0 0.0
2017-Apr-24 03:30N 16°24' W 061°32'0 0.0
2017-Apr-24 03:00N 16°24' W 061°32'0 0.0
2017-Apr-24 02:30N 16°24' W 061°32'0 0.0
2017-Apr-24 02:00N 16°24' W 061°32'0 0.0
2017-Apr-24 01:30N 16°24' W 061°32'0 0.0
2017-Apr-24 01:00N 16°24' W 061°32'0 0.0
2017-Apr-24 00:30N 16°24' W 061°32'0 0.0
2017-Apr-24 00:00N 16°24' W 061°32'0 0.0
2017-Apr-23 23:30N 16°24' W 061°32'0 0.0
2017-Apr-23 23:00N 16°24' W 061°32'0 0.0
2017-Apr-23 22:30N 16°24' W 061°32'0 0.0
2017-Apr-23 22:00N 16°24' W 061°32'0 0.0
2017-Apr-23 21:30N 16°24' W 061°32'0 0.0
2017-Apr-23 21:00N 16°24' W 061°32'0 0.0
2017-Apr-23 20:30N 16°24' W 061°32'0 0.0
2017-Apr-23 20:00N 16°24' W 061°32'0 0.0
2017-Apr-23 19:30N 16°24' W 061°32'0 0.0
2017-Apr-23 19:00N 16°24' W 061°32'0 0.0
2017-Apr-23 18:30N 16°24' W 061°32'0 0.0
2017-Apr-23 18:00N 16°24' W 061°32'0 0.0
2017-Apr-23 17:30N 16°24' W 061°32'0 0.0
2017-Apr-23 17:00N 16°24' W 061°32'0 0.0
2017-Apr-23 16:30N 16°24' W 061°32'0 0.0
2017-Apr-23 16:00N 16°24' W 061°32'0 0.0
2017-Apr-23 15:30N 16°24' W 061°32'0 0.0
2017-Apr-23 15:00N 16°24' W 061°32'0 0.0
2017-Apr-23 14:00N 16°24' W 061°32'3 5.9
2017-Apr-23 13:30N 16°22' W 061°34'3 5.7
2017-Apr-23 12:59N 16°19' W 061°34'3 5.5
2017-Apr-23 12:30N 16°17' W 061°35'0 0.8
2017-Apr-23 11:56N 16°16' W 061°35'0 0.0
2017-Apr-23 11:30N 16°16' W 061°35'0 0.0
2017-Apr-23 11:00N 16°16' W 061°35'0 0.0
2017-Apr-23 10:30N 16°16' W 061°35'0 0.0
2017-Apr-23 09:50N 16°16' W 061°35'0 0.0
2017-Apr-23 09:30N 16°16' W 061°35'0 0.0
2017-Apr-23 08:58N 16°16' W 061°35'0 0.0
2017-Apr-23 08:28N 16°16' W 061°35'0 0.0
2017-Apr-23 08:00N 16°16' W 061°35'0 0.0
2017-Apr-23 07:30N 16°16' W 061°35'0 0.0
2017-Apr-23 07:00N 16°16' W 061°35'0 0.0
2017-Apr-23 06:27N 16°16' W 061°35'0 0.0
2017-Apr-23 06:00N 16°16' W 061°35'0 0.0
2017-Apr-23 05:30N 16°16' W 061°35'0 0.0
2017-Apr-23 04:42N 16°16' W 061°35'0 0.0
2017-Apr-23 04:30N 16°16' W 061°35'0 0.0
2017-Apr-23 03:55N 16°16' W 061°35'0 0.0
2017-Apr-23 03:29N 16°16' W 061°35'0 0.0
2017-Apr-23 03:00N 16°16' W 061°35'0 0.0
2017-Apr-23 02:29N 16°16' W 061°35'0 0.0
2017-Apr-23 01:49N 16°16' W 061°35'0 0.0
2017-Apr-23 01:25N 16°16' W 061°35'0 0.0
2017-Apr-23 00:59N 16°16' W 061°35'0 0.0
2017-Apr-23 00:25N 16°16' W 061°35'0 0.0
2017-Apr-22 23:57N 16°16' W 061°35'0 0.0
2017-Apr-22 23:30N 16°16' W 061°35'0 0.0
2017-Apr-22 22:59N 16°16' W 061°35'0 0.0
2017-Apr-22 22:30N 16°16' W 061°35'0 0.0
2017-Apr-22 21:53N 16°16' W 061°35'0 0.0
2017-Apr-22 21:29N 16°16' W 061°35'0 0.0
2017-Apr-22 21:00N 16°16' W 061°35'0 0.0
2017-Apr-22 20:30N 16°16' W 061°35'0 0.0
2017-Apr-22 20:00N 16°16' W 061°35'0 0.0
2017-Apr-22 19:21N 16°16' W 061°35'0 0.0
2017-Apr-22 18:56N 16°16' W 061°35'0 0.0
2017-Apr-22 18:29N 16°16' W 061°35'0 0.0
2017-Apr-22 17:59N 16°16' W 061°35'0 0.0
2017-Apr-22 17:28N 16°16' W 061°35'0 0.0
2017-Apr-22 16:59N 16°16' W 061°35'1 2.9
2017-Apr-22 16:29N 16°18' W 061°35'3 5.9
2017-Apr-22 16:00N 16°20' W 061°34'3 5.6
2017-Apr-22 15:30N 16°23' W 061°36'3 5.2
2017-Apr-22 15:00N 16°24' W 061°38'3 6.9
2017-Apr-22 14:30N 16°24' W 061°42'7 6.5
2017-Apr-22 13:27N 16°20' W 061°48'2 4.8
2017-Apr-22 13:00N 16°18' W 061°48'0 0.1
2017-Apr-22 12:30N 16°18' W 061°48'0 0.0
2017-Apr-22 11:59N 16°18' W 061°48'0 0.0
2017-Apr-22 11:30N 16°18' W 061°48'0 0.0
2017-Apr-22 11:00N 16°18' W 061°48'0 0.0
2017-Apr-22 10:30N 16°18' W 061°48'0 0.0
2017-Apr-22 10:00N 16°18' W 061°48'0 0.0
2017-Apr-22 09:30N 16°18' W 061°48'0 0.0
2017-Apr-22 09:00N 16°18' W 061°48'0 0.0
2017-Apr-22 08:30N 16°18' W 061°48'0 0.0
2017-Apr-22 08:00N 16°18' W 061°48'0 0.0
2017-Apr-22 07:30N 16°18' W 061°48'0 0.0
2017-Apr-22 07:00N 16°18' W 061°48'0 0.0
2017-Apr-22 06:30N 16°18' W 061°48'0 0.0
2017-Apr-22 06:00N 16°18' W 061°48'0 0.0
2017-Apr-22 05:29N 16°18' W 061°48'0 0.0
2017-Apr-22 05:00N 16°18' W 061°48'0 0.0
2017-Apr-22 04:30N 16°18' W 061°48'0 0.0
2017-Apr-22 03:59N 16°18' W 061°48'0 0.0
2017-Apr-22 03:29N 16°18' W 061°48'0 0.0
2017-Apr-22 03:00N 16°18' W 061°48'0 0.0
2017-Apr-22 02:30N 16°18' W 061°48'0 0.0
2017-Apr-22 02:00N 16°18' W 061°48'0 0.0
2017-Apr-22 01:30N 16°18' W 061°48'0 0.0
2017-Apr-22 00:59N 16°18' W 061°48'0 0.0
2017-Apr-22 00:30N 16°18' W 061°48'0 0.0
2017-Apr-22 00:00N 16°18' W 061°48'0 0.0
2017-Apr-21 23:30N 16°18' W 061°48'0 0.0
2017-Apr-21 22:59N 16°18' W 061°48'0 0.0
2017-Apr-21 22:25N 16°18' W 061°48'0 0.0
2017-Apr-21 22:00N 16°18' W 061°48'0 0.0
2017-Apr-21 21:30N 16°18' W 061°48'0 0.0
2017-Apr-21 20:58N 16°18' W 061°48'0 0.0
2017-Apr-21 20:30N 16°18' W 061°48'0 0.0
2017-Apr-21 20:00N 16°18' W 061°48'0 0.0
2017-Apr-21 19:29N 16°18' W 061°48'0 0.0
2017-Apr-21 19:00N 16°18' W 061°48'0 0.0
2017-Apr-21 18:30N 16°18' W 061°48'0 0.8
2017-Apr-21 17:59N 16°18' W 061°48'8 7.7
2017-Apr-21 16:59N 16°10' W 061°48'4 7.7
2017-Apr-21 16:30N 16°07' W 061°47'4 6.8
2017-Apr-21 15:59N 16°03' W 061°46'  

Dump ship's entire track history